Airport Name : Olbia Costa Smeralda

Other Name : Olbia

ICAO : LIEO

IATA : OLB

FAA :

Latitude : 40.898661

Longitude : 9.517628

Country : Italy

Local Date and Time : 22 Oct 2020 22:23

 

TAF (Terminal Aerodrome Forecast)

TAF LIEO 221700Z 2218/2318 VRB06KT 9999 FEW040 BECMG 2308/2310 04010KT

 

METAR (METeorological Aerodrome Report)

LIEO 221950Z AUTO 26003KT 210V290 9999 NCD 16/14 Q1020

LIEO 221920Z AUTO VRB01KT 9999 NCD 17/15 Q1021

LIEO 221850Z 17002KT 9999 FEW020 17/15 Q1021

LIEO 221820Z VRB01KT 9999 FEW020 19/16 Q1021

LIEO 221750Z 14003KT CAVOK 19/16 Q1020

LIEO 221720Z 09003KT CAVOK 20/16 Q1020

LIEO 221650Z 08003KT 030V150 CAVOK 21/16 Q1019

To Charter a Jet Click here.